West Point, NE

9:54 PM CDT on May 24, 2015 (GMT -0500)
Wayne Municipal | | Change Station
CLOSE
Current Station
Airport
Location: Wayne,
Elevation: 1430 ft
Nearby Weather Stations

Elev 1430 ft 42.24 °N, 96.98 °W | Updated 19 minutes ago

Overcast
Overcast
61 °F
Feels Like 61 °F
N
0
Wind Variable Wind from North

Today
High -- | Low -- °F
--% Chance of Precip.
Yesterday
High -- | Low -- °F
Precip. -- in
5:59 AM 8:48 PM
Waxing Crescent, 44% visible
Pressure 29.78 in
Visibility 7.0 miles
Clouds Scattered Clouds 600 ft
Scattered Clouds 3200 ft
Overcast 4300 ft
Dew Point 60 °F
Humidity 97%
Rainfall 0.00 in
Snow Depth Not available.
UV 0 out of 12
Pollen 1.20 out of 12
Air Quality Not available.
Flu Activity No Activity
METAR KLCG 250235Z AUTO 00000KT 7SM SCT006 SCT032 OVC043 16/16 A2978 RMK AO2 T01620157

More Conditions Fewer Conditions

Pressure 29.78 in
Visibility 7.0 miles
Clouds Scattered Clouds 600 ft
Scattered Clouds 3200 ft
Overcast 4300 ft
Dew Point 60 °F
Humidity 97%
Rainfall 0.00 in
Snow Depth Not available.
UV 0 out of 12
Pollen 1.20 out of 12
Air Quality Not available.
Flu Activity No Activity
METAR KLCG 250235Z AUTO 00000KT 7SM SCT006 SCT032 OVC043 16/16 A2978 RMK AO2 T01620157

More Conditions Fewer Conditions

10-Day Weather Forecast

Almanac

Astronomy

May. 24, 2015 Rise Set
Actual Time
Civil Twilight
Nautical Twilight
Astronomical Twilight
Moon
Length of Visible Light
Length of Day
Tomorrow will be .
, % of the Moon is Illuminated

Today's Extremes

State Highs State Lows

Community

WunderPhotos

Upload Photos

1,823,936 photos uploaded!

WunderBlogs® & News

Nearby

Air Quality

  Air Quality AQ Index Pollutant
Not available.

Snow Depth

Station Depth Elevation

Earthquake Activity

City Distance Mag. Time & Date
Minimum magnitude displayed is 2.5.

Coastal Water Temperatures

Place Temperature

Stations

Nearby Weather Stations

Station Location Temp. Windchill Dew Point Humidity Wind Precip. Elev Updated Type